Time;durP1;ratioP1;P1;durP2;ratioP2;P2;SDS_P1;SDS_P2;PMS_P1;PMS_P2;Temp;Humidity;BMP_temperature;BMP_pressure;BME280_temperature;BME280_humidity;BME280_pressure;Samples;Min_cycle;Max_cycle;Signal;HPM_P1;HPM_P2
2022/09/06 00:03:05;;;;;;;2.58;2.22;;;;;;;19.22;86.13;101323.19;20711338;28;20128;-74
2022/09/06 00:13:08;;;;;;;2.45;2.15;;;;;;;19.33;86.00;101329.50;20710969;28;20053;-73
2022/09/06 00:23:09;;;;;;;2.42;2.20;;;;;;;19.32;86.15;101338.56;20710337;28;20122;-74
2022/09/06 00:33:12;;;;;;;2.13;1.92;;;;;;;19.32;86.01;101331.34;20711025;28;20089;-74
2022/09/06 00:43:14;;;;;;;2.55;2.35;;;;;;;19.32;85.87;101335.88;20719471;28;20056;-73
2022/09/06 00:53:16;;;;;;;2.72;2.38;;;;;;;19.32;85.71;101354.78;20724742;28;20445;-74
2022/09/06 01:03:20;;;;;;;2.40;2.20;;;;;;;19.30;85.79;101340.56;20722946;28;20046;-73
2022/09/06 01:13:47;;;;;;;3.00;2.20;;;;;;;19.30;85.75;101345.97;20804822;28;20045;-74
2022/09/06 01:24:24;;;;;;;2.58;2.35;;;;;;;19.28;85.67;101338.84;20785295;28;20053;-75
2022/09/06 01:34:39;;;;;;;2.50;2.30;;;;;;;19.28;85.53;101344.25;20789778;28;20548;-73
2022/09/06 01:45:00;;;;;;;2.92;2.63;;;;;;;19.28;85.48;101338.84;20785172;28;20395;-74
2022/09/06 01:55:15;;;;;;;2.83;2.58;;;;;;;19.26;85.40;101313.84;20791726;28;20064;-74
2022/09/06 02:05:23;;;;;;;2.60;2.20;;;;;;;19.25;85.24;101312.13;20800820;28;20053;-73
2022/09/06 02:15:28;;;;;;;2.38;2.17;;;;;;;18.50;85.34;101188.22;20800691;28;20560;-73
2022/09/06 02:25:37;;;;;;;2.60;2.40;;;;;;;19.26;85.54;101313.00;20781825;28;20050;-74
2022/09/06 02:35:48;;;;;;;3.35;2.55;;;;;;;19.15;85.31;101296.88;20797541;28;20108;-73
2022/09/06 02:45:49;;;;;;;3.05;2.50;;;;;;;19.24;85.40;101305.03;20795556;28;20055;-74
2022/09/06 02:55:51;;;;;;;2.63;2.42;;;;;;;19.25;85.27;101295.94;20797667;28;20052;-73
2022/09/06 03:05:53;;;;;;;2.75;2.55;;;;;;;19.25;85.30;101277.03;20796193;28;20514;-74
2022/09/06 03:15:57;;;;;;;2.85;2.55;;;;;;;19.24;85.28;101269.09;20794988;28;20103;-73
2022/09/06 03:25:59;;;;;;;2.70;2.50;;;;;;;19.22;85.37;101266.50;20794996;28;20056;-74
2022/09/06 03:36:02;;;;;;;2.75;2.50;;;;;;;18.92;85.22;101224.19;20847030;28;20076;-74
2022/09/06 03:46:03;;;;;;;2.47;2.28;;;;;;;19.23;85.18;101264.69;20798429;28;20045;-73
2022/09/06 03:56:05;;;;;;;3.15;2.80;;;;;;;19.22;85.43;101261.13;20816649;28;20058;-74
2022/09/06 04:06:07;;;;;;;2.95;2.70;;;;;;;19.21;84.98;101262.09;20774501;28;20060;-74
2022/09/06 04:16:09;;;;;;;4.43;2.65;;;;;;;19.21;85.17;101267.50;20778608;28;20049;-74
2022/09/06 04:26:11;;;;;;;2.50;2.30;;;;;;;19.21;85.14;101278.31;20785904;28;20050;-74
2022/09/06 04:36:12;;;;;;;3.13;2.83;;;;;;;19.20;85.19;101265.81;20685924;28;20053;-75
2022/09/06 04:46:21;;;;;;;4.68;2.88;;;;;;;19.23;85.43;101268.22;20688699;28;20058;-75
2022/09/06 04:56:24;;;;;;;3.55;3.25;;;;;;;19.26;85.31;101278.75;20685152;28;20057;-74
2022/09/06 05:06:26;;;;;;;5.55;3.47;;;;;;;19.29;85.91;101301.94;20687678;28;20100;-74
2022/09/06 05:16:27;;;;;;;3.75;3.13;;;;;;;19.21;87.17;101289.09;20697484;28;20502;-74
2022/09/06 05:26:29;;;;;;;3.80;3.50;;;;;;;19.32;87.26;101316.97;20706109;28;20048;-75
2022/09/06 05:36:31;;;;;;;4.47;3.50;;;;;;;19.32;87.55;101315.16;20708779;28;20053;-74
2022/09/06 05:46:32;;;;;;;3.92;3.58;;;;;;;19.32;87.52;101327.78;20706308;28;20049;-74
2022/09/06 05:56:34;;;;;;;4.25;3.40;;;;;;;19.31;87.52;101321.53;20701339;28;20058;-75
2022/09/06 06:06:35;;;;;;;5.05;3.60;;;;;;;19.05;87.49;101261.78;20698899;28;20497;-75
2022/09/06 06:16:37;;;;;;;4.28;3.45;;;;;;;19.15;87.82;101273.44;20702171;28;20104;-75
2022/09/06 06:26:39;;;;;;;5.22;3.72;;;;;;;19.18;87.79;101280.41;20707027;28;20486;-75
2022/09/06 06:36:40;;;;;;;4.80;3.45;;;;;;;19.35;88.03;101312.19;20715921;28;20407;-78
2022/09/06 06:46:42;;;;;;;5.07;3.90;;;;;;;19.26;87.84;101292.25;20717448;28;20050;-74
2022/09/06 06:56:44;;;;;;;3.97;3.60;;;;;;;19.35;88.01;101295.09;20701293;28;20124;-74
2022/09/06 07:06:51;;;;;;;4.47;4.07;;;;;;;19.35;87.84;101281.63;20715532;28;20065;-74
2022/09/06 07:17:12;;;;;;;4.30;3.90;;;;;;;19.36;87.98;101281.50;20712974;28;20112;-75
2022/09/06 07:27:14;;;;;;;4.15;3.75;;;;;;;19.36;87.79;101256.31;20715784;28;20054;-75
2022/09/06 07:37:35;;;;;;;4.63;4.18;;;;;;;19.37;87.98;101252.63;20673415;28;20049;-74
2022/09/06 07:47:37;;;;;;;4.40;4.00;;;;;;;19.38;88.03;101262.44;20685424;28;20068;-75
2022/09/06 07:57:59;;;;;;;4.80;4.40;;;;;;;19.37;88.11;101249.94;20772010;28;20414;-75
2022/09/06 08:08:01;;;;;;;4.35;3.95;;;;;;;19.38;87.98;101263.31;20784314;28;20084;-75
2022/09/06 08:18:22;;;;;;;4.47;4.07;;;;;;;19.39;88.21;101258.75;20745059;28;20092;-76
2022/09/06 08:28:24;;;;;;;4.40;4.00;;;;;;;19.39;88.30;101253.34;20757095;28;20050;-75
2022/09/06 08:38:29;;;;;;;8.30;4.68;;;;;;;19.42;88.65;101263.88;20727473;28;20078;-75
2022/09/06 08:48:33;;;;;;;4.60;4.18;;;;;;;19.46;89.37;101270.72;20694434;28;20056;-75
2022/09/06 08:58:49;;;;;;;5.45;4.65;;;;;;;19.49;89.75;101267.75;20746597;28;20049;-75
2022/09/06 09:09:04;;;;;;;5.00;4.50;;;;;;;19.51;89.88;101273.00;20752001;28;20076;-75
2022/09/06 09:19:08;;;;;;;;;;;;;;;19.52;90.02;101280.97;20780322;28;20060;-74
2022/09/06 09:29:11;;;;;;;5.03;4.50;;;;;;;19.52;89.97;101288.22;20748832;28;19920;-75
2022/09/06 09:39:13;;;;;;;5.00;4.53;;;;;;;19.52;90.26;101289.06;20788022;28;20053;-75
2022/09/06 09:49:21;;;;;;;4.45;4.05;;;;;;;19.53;90.21;101271.88;20798246;28;20103;-75
2022/09/06 09:59:37;;;;;;;4.28;3.88;;;;;;;19.54;90.32;101278.13;20716854;28;20050;-75
2022/09/06 10:09:42;;;;;;;5.25;4.25;;;;;;;19.54;90.35;101279.00;20708864;28;20129;-75
2022/09/06 10:19:45;;;;;;;5.25;4.28;;;;;;;19.54;90.47;101272.72;20706481;28;20054;-74
2022/09/06 10:29:48;;;;;;;4.22;3.83;;;;;;;19.54;90.63;101268.19;20694307;28;20046;-75
2022/09/06 10:39:55;;;;;;;3.97;3.58;;;;;;;19.50;90.64;101245.16;20764523;28;20386;-75
2022/09/06 10:49:59;;;;;;;4.07;3.60;;;;;;;19.54;90.62;101235.78;20683042;28;20131;-75
2022/09/06 11:00:10;;;;;;;4.15;3.75;;;;;;;19.54;90.49;101230.38;20699257;28;20491;-75
2022/09/06 11:10:23;;;;;;;4.25;3.63;;;;;;;19.54;90.67;101216.88;20702739;28;20046;-76
2022/09/06 11:20:39;;;;;;;6.88;3.10;;;;;;;19.61;92.39;101229.81;20702107;28;20505;-75
2022/09/06 11:30:46;;;;;;;6.18;3.10;;;;;;;19.67;92.18;101223.84;20765701;28;20045;-75
2022/09/06 11:41:03;;;;;;;5.55;3.33;;;;;;;19.68;91.54;101217.47;20770233;28;20136;-75
2022/09/06 11:51:09;;;;;;;5.43;2.95;;;;;;;19.44;91.17;101180.03;20688183;28;20136;-75
2022/09/06 12:01:11;;;;;;;;;;;;;;;19.66;90.96;101214.03;20713685;28;20057;-75
2022/09/06 12:11:26;;;;;;;3.35;2.88;;;;;;;19.64;90.83;101203.38;20711899;28;19921;-75
2022/09/06 12:21:41;;;;;;;5.28;3.10;;;;;;;19.64;90.64;101194.44;20712336;28;20058;-76
2022/09/06 12:31:49;;;;;;;3.47;3.17;;;;;;;19.42;90.30;101170.25;20710195;28;20054;-75
2022/09/06 12:41:55;;;;;;;3.88;3.00;;;;;;;19.55;90.58;101174.50;20723705;28;20446;-75
2022/09/06 12:52:11;;;;;;;3.15;2.72;;;;;;;19.50;90.03;101153.34;20724329;28;20053;-75
2022/09/06 13:02:20;;;;;;;3.33;2.75;;;;;;;19.49;89.79;101156.19;20725744;28;20042;-75
2022/09/06 13:12:41;;;;;;;3.40;2.95;;;;;;;19.07;89.74;101077.13;20724956;28;20137;-75
2022/09/06 13:22:49;;;;;;;3.20;2.80;;;;;;;19.63;89.66;101163.00;20721991;28;20509;-75
2022/09/06 13:32:51;;;;;;;3.08;2.78;;;;;;;19.64;89.74;101164.72;20722657;28;20103;-75
2022/09/06 13:42:59;;;;;;;3.72;3.30;;;;;;;19.49;89.54;101132.75;20707023;28;20060;-76
2022/09/06 13:53:01;;;;;;;2.85;2.53;;;;;;;19.63;89.52;101141.41;20692722;28;20042;-75
2022/09/06 14:03:03;;;;;;;3.15;2.85;;;;;;;19.63;89.56;101130.59;20684420;28;20090;-75
2022/09/06 14:13:05;;;;;;;2.60;2.40;;;;;;;19.64;89.57;101126.91;20662845;28;20092;-75
2022/09/06 14:23:07;;;;;;;2.97;2.67;;;;;;;19.64;89.18;101116.09;20674704;28;20065;-75
2022/09/06 14:33:09;;;;;;;2.83;2.63;;;;;;;19.62;89.01;101124.34;20661092;28;20557;-75
2022/09/06 14:43:11;;;;;;;4.05;2.63;;;;;;;19.40;89.07;101083.13;20667818;28;20486;-75
2022/09/06 14:53:13;;;;;;;3.45;2.25;;;;;;;19.60;89.46;101104.72;20661809;28;20061;-74
2022/09/06 15:03:35;;;;;;;3.00;2.35;;;;;;;19.62;89.18;101091.09;20661118;28;20050;-74
2022/09/06 15:13:39;;;;;;;3.67;2.50;;;;;;;19.45;89.12;101074.63;20682993;28;20172;-74
2022/09/06 15:23:42;;;;;;;3.25;2.42;;;;;;;19.43;89.10;101060.38;20676264;28;20115;-74
2022/09/06 15:33:44;;;;;;;2.28;2.05;;;;;;;19.56;89.07;101065.50;20663179;28;20069;-74
2022/09/06 15:43:47;;;;;;;2.72;1.98;;;;;;;19.54;89.19;101060.25;20671474;28;20123;-75
2022/09/06 15:53:49;;;;;;;8.13;3.42;;;;;;;19.55;90.47;101056.56;20660828;28;20066;-74
2022/09/06 16:04:04;;;;;;;13.43;4.75;;;;;;;19.60;91.91;101048.00;20663189;28;20056;-75
2022/09/06 16:14:09;;;;;;;26.80;9.32;;;;;;;19.44;93.78;100983.78;20660508;28;20053;-75
2022/09/06 16:24:12;;;;;;;19.05;7.25;;;;;;;19.68;95.29;101028.38;20674451;28;20054;-75
2022/09/06 16:34:14;;;;;;;15.07;6.43;;;;;;;19.71;95.68;101028.97;20688011;28;20096;-75
2022/09/06 16:44:17;;;;;;;12.68;5.40;;;;;;;19.71;95.53;101023.56;20699176;28;20502;-75
2022/09/06 16:54:19;;;;;;;12.00;5.38;;;;;;;19.73;95.40;101028.81;20703769;28;20073;-75
2022/09/06 17:04:22;;;;;;;11.32;4.93;;;;;;;19.73;94.79;101027.97;20706479;28;20073;-75
2022/09/06 17:14:23;;;;;;;9.50;4.68;;;;;;;19.71;93.87;101037.06;20701527;28;20508;-74
2022/09/06 17:24:25;;;;;;;14.98;5.00;;;;;;;19.70;94.18;101042.59;20700227;28;20054;-74
2022/09/06 17:34:27;;;;;;;9.90;4.70;;;;;;;19.67;94.26;101045.59;20697293;28;20169;-75
2022/09/06 17:44:29;;;;;;;8.50;4.47;;;;;;;19.60;93.94;101036.38;20700388;28;20089;-75
2022/09/06 17:54:30;;;;;;;8.43;4.20;;;;;;;19.61;93.75;101049.72;20698418;28;20065;-74
2022/09/06 18:04:32;;;;;;;8.77;4.30;;;;;;;19.60;93.89;101066.06;20719325;28;20414;-74
2022/09/06 18:14:34;;;;;;;7.53;4.18;;;;;;;19.57;94.06;101069.91;20719823;28;20061;-74
2022/09/06 18:24:35;;;;;;;7.35;3.70;;;;;;;19.58;94.04;101073.47;20715954;28;20533;-74
2022/09/06 18:34:37;;;;;;;5.45;3.60;;;;;;;19.55;93.65;101086.25;20715288;28;20056;-75
2022/09/06 18:44:39;;;;;;;7.53;4.45;;;;;;;19.55;93.47;101093.50;20714494;28;20053;-75
2022/09/06 18:54:42;;;;;;;4.28;3.22;;;;;;;19.54;93.64;101100.75;20714625;28;20060;-76
2022/09/06 19:04:44;;;;;;;4.85;3.47;;;;;;;19.53;93.54;101101.75;20716109;28;20763;-75
2022/09/06 19:14:46;;;;;;;5.32;3.42;;;;;;;19.52;93.62;101100.06;20713129;28;20045;-75
2022/09/06 19:24:47;;;;;;;6.18;2.90;;;;;;;19.51;93.51;101111.84;20712986;28;20069;-74
2022/09/06 19:34:49;;;;;;;5.68;3.15;;;;;;;19.50;93.56;101099.34;20713165;28;20053;-74
2022/09/06 19:44:51;;;;;;;4.97;3.22;;;;;;;19.50;93.60;101099.34;20713636;28;20096;-74
2022/09/06 19:54:53;;;;;;;4.03;3.28;;;;;;;19.34;93.60;101067.50;20712569;28;20046;-74
2022/09/06 20:04:54;;;;;;;3.97;2.95;;;;;;;19.48;93.88;101095.94;20710487;28;20050;-74
2022/09/06 20:14:57;;;;;;;4.80;3.53;;;;;;;19.48;93.99;101079.72;20694468;28;20058;-74
2022/09/06 20:24:59;;;;;;;4.57;3.05;;;;;;;19.27;93.83;101034.81;20709961;28;20120;-74
2022/09/06 20:35:00;;;;;;;4.18;3.03;;;;;;;19.47;93.94;101067.22;20693558;28;20070;-74
2022/09/06 20:45:02;;;;;;;3.97;2.72;;;;;;;19.47;94.21;101048.31;20709309;28;20053;-75
2022/09/06 20:55:04;;;;;;;5.28;3.05;;;;;;;19.46;94.09;101021.47;20694467;28;20054;-74
2022/09/06 21:05:06;;;;;;;3.13;2.72;;;;;;;19.45;93.97;101022.44;20723188;28;20544;-75
2022/09/06 21:15:08;;;;;;;4.22;3.50;;;;;;;19.44;93.74;101001.84;20722769;28;20054;-75
2022/09/06 21:25:09;;;;;;;2.65;2.20;;;;;;;19.25;93.64;100963.94;20722432;28;20042;-75
2022/09/06 21:35:11;;;;;;;2.90;2.60;;;;;;;19.43;93.44;100979.38;20722506;28;20522;-74
2022/09/06 21:45:13;;;;;;;3.78;2.75;;;;;;;19.11;93.52;100932.00;20721031;28;20103;-74
2022/09/06 21:55:14;;;;;;;3.80;2.80;;;;;;;19.42;93.42;100993.88;20721375;28;20089;-75
2022/09/06 22:05:16;;;;;;;3.92;2.90;;;;;;;19.35;93.19;100971.16;20702007;28;20477;-74
2022/09/06 22:15:20;;;;;;;3.65;2.90;;;;;;;19.42;93.07;100977.69;20716532;28;20082;-75
2022/09/06 22:25:21;;;;;;;4.50;2.97;;;;;;;19.41;93.18;100997.56;20718477;28;20049;-74
2022/09/06 22:35:23;;;;;;;3.22;2.72;;;;;;;19.41;93.03;101040.78;20717280;28;20058;-74
2022/09/06 22:45:24;;;;;;;3.45;2.90;;;;;;;19.42;93.08;101058.69;20717437;28;20088;-74
2022/09/06 22:55:26;;;;;;;4.05;3.00;;;;;;;19.41;92.92;101019.19;20698303;28;20038;-74
2022/09/06 23:05:29;;;;;;;3.17;2.88;;;;;;;19.19;92.80;100948.31;20796815;28;20070;-75
2022/09/06 23:15:34;;;;;;;3.60;2.80;;;;;;;19.32;93.01;100956.13;20793970;28;20075;-75
2022/09/06 23:25:37;;;;;;;3.50;3.13;;;;;;;19.39;92.99;100956.38;20794017;28;20041;-75
2022/09/06 23:35:39;;;;;;;3.75;3.35;;;;;;;19.38;93.22;100933.94;20793079;28;20045;-74
2022/09/06 23:45:40;;;;;;;3.28;2.78;;;;;;;19.39;93.43;100921.28;20720474;28;20046;-75
2022/09/06 23:55:42;;;;;;;3.83;3.00;;;;;;;19.27;93.60;100897.16;20710534;28;20050;-75
